Terminal Aerodrome Forecast
Issued by NWS

Home | Current Version | Previous Version | Text Only | Print | Product List | Glossary On
Versions: 1 2 3 4 5 6 7 8 9 10 11 12 13
000
FTUS45 KREV 201726
TAFMMH
TAF
KMMH 201726Z 2018/2118 34012G22KT P6SM SCT050 BKN090
     FM201900 30020G35KT P6SM SCT090 SCT180
     FM210200 29011G19KT P6SM SCT180
     FM210500 30009KT P6SM FEW180=

USA.gov is the U.S. government's official web portal to all federal, state and local government web resources and services.